createdAt,value
2022-09-12T00:01:17.362Z,8.47
2022-09-12T00:03:44.073Z,8.61
2022-09-12T00:06:23.205Z,8.80
2022-09-12T00:08:51.592Z,8.85
2022-09-12T00:11:18.247Z,8.80
2022-09-12T00:13:44.890Z,8.77
2022-09-12T00:16:17.431Z,8.68
2022-09-12T00:18:46.716Z,8.58
2022-09-12T00:21:15.147Z,8.46
2022-09-12T00:23:44.523Z,8.44
2022-09-12T00:26:11.178Z,8.33
2022-09-12T00:28:39.169Z,8.36
2022-09-12T00:31:07.683Z,8.37
2022-09-12T00:33:35.314Z,8.42
2022-09-12T00:36:06.383Z,8.46
2022-09-12T00:38:33.578Z,8.47
2022-09-12T00:41:00.111Z,8.36
2022-09-12T00:43:40.538Z,8.26
2022-09-12T00:46:40.492Z,8.22
2022-09-12T00:49:13.368Z,8.27
2022-09-12T00:51:48.713Z,8.37
2022-09-12T00:54:22.087Z,8.45
2022-09-12T00:56:50.778Z,8.46
2022-09-12T00:59:23.823Z,8.51
2022-09-12T01:01:51.907Z,8.46
2022-09-12T01:04:21.899Z,8.45
2022-09-12T01:06:49.828Z,8.48
2022-09-12T01:09:21.826Z,8.52
2022-09-12T01:11:50.263Z,8.53
2022-09-12T01:14:17.995Z,8.53
2022-09-12T01:16:46.072Z,8.53
2022-09-12T01:19:19.080Z,8.57
2022-09-12T01:21:59.295Z,8.59
2022-09-12T01:24:53.844Z,8.65
2022-09-12T01:27:26.948Z,8.67
2022-09-12T01:30:04.963Z,8.64
2022-09-12T01:32:40.693Z,8.58
2022-09-12T01:35:22.943Z,8.45
2022-09-12T01:38:09.674Z,8.31
2022-09-12T01:40:49.053Z,8.23
2022-09-12T01:43:35.309Z,8.07
2022-09-12T01:46:11.792Z,7.90
2022-09-12T01:48:46.888Z,7.81
2022-09-12T01:51:31.370Z,7.83
2022-09-12T01:54:04.315Z,7.70
2022-09-12T01:56:35.046Z,7.75
2022-09-12T01:59:12.618Z,7.69
2022-09-12T02:01:48.074Z,7.62
2022-09-12T02:04:22.467Z,7.52
2022-09-12T02:06:55.178Z,7.45
2022-09-12T02:09:35.410Z,7.43
2022-09-12T02:12:06.100Z,7.43
2022-09-12T02:14:40.474Z,7.45
2022-09-12T02:17:13.403Z,7.41
2022-09-12T02:20:03.326Z,7.41
2022-09-12T02:22:31.589Z,7.48
2022-09-12T02:25:01.090Z,7.56
2022-09-12T02:27:37.817Z,7.62
2022-09-12T02:30:06.500Z,7.62
2022-09-12T02:32:43.406Z,7.53
2022-09-12T02:35:25.216Z,7.50
2022-09-12T02:38:04.106Z,7.47
2022-09-12T02:40:31.568Z,7.49
2022-09-12T02:42:58.706Z,7.32
2022-09-12T02:45:25.345Z,7.27
2022-09-12T02:48:10.002Z,7.31
2022-09-12T02:50:37.425Z,7.31
2022-09-12T02:53:05.725Z,7.33
2022-09-12T02:55:34.460Z,7.36
2022-09-12T02:58:06.855Z,7.33
2022-09-12T03:00:46.549Z,7.36
2022-09-12T03:03:43.629Z,7.34
2022-09-12T03:06:35.375Z,7.39
2022-09-12T03:09:46.622Z,7.33
2022-09-12T03:12:37.878Z,7.25
2022-09-12T03:15:07.443Z,7.15
2022-09-12T03:17:51.011Z,7.11
2022-09-12T03:21:03.942Z,7.11
2022-09-12T03:24:07.314Z,7.24
2022-09-12T03:26:47.581Z,7.21
2022-09-12T03:29:15.685Z,7.24
2022-09-12T03:31:56.899Z,7.09
2022-09-12T03:34:27.031Z,7.21
2022-09-12T03:36:58.126Z,7.20
2022-09-12T03:39:26.847Z,7.32
2022-09-12T03:41:54.864Z,7.44
2022-09-12T03:44:21.694Z,7.50
2022-09-12T03:46:48.397Z,7.65
2022-09-12T03:49:15.098Z,7.67
2022-09-12T03:51:43.078Z,7.63
2022-09-12T03:54:10.402Z,7.69
2022-09-12T03:56:37.284Z,7.69
2022-09-12T03:59:07.566Z,7.65
2022-09-12T04:01:34.607Z,7.69
2022-09-12T04:04:01.247Z,7.70
2022-09-12T04:06:27.887Z,7.61
2022-09-12T04:08:56.247Z,7.51
2022-09-12T04:11:23.517Z,7.49
2022-09-12T04:13:50.545Z,7.52
2022-09-12T04:16:18.610Z,7.64
2022-09-12T04:18:46.047Z,7.63
2022-09-12T04:21:15.419Z,7.60
2022-09-12T04:23:42.590Z,7.53
2022-09-12T04:26:09.362Z,7.50
2022-09-12T04:28:37.935Z,7.39
2022-09-12T04:31:07.617Z,7.44
2022-09-12T04:33:35.373Z,7.50
2022-09-12T04:36:20.382Z,7.58
2022-09-12T04:38:48.114Z,7.67
2022-09-12T04:41:17.268Z,7.64
2022-09-12T04:43:48.260Z,7.75
2022-09-12T04:46:17.336Z,7.86
2022-09-12T04:48:43.997Z,7.98
2022-09-12T04:51:16.634Z,8.10
2022-09-12T04:53:47.266Z,8.19
2022-09-12T04:56:13.851Z,8.28
2022-09-12T04:58:40.427Z,8.34
2022-09-12T05:01:09.708Z,8.40
2022-09-12T05:03:39.036Z,8.47
2022-09-12T05:06:08.514Z,8.49
2022-09-12T05:08:35.909Z,8.54
2022-09-12T05:11:08.201Z,8.55
2022-09-12T05:13:35.491Z,8.54
2022-09-12T05:16:04.213Z,8.48
2022-09-12T05:18:35.844Z,8.53
2022-09-12T05:21:04.121Z,8.44
2022-09-12T05:23:31.033Z,8.46
2022-09-12T05:25:59.059Z,8.44
2022-09-12T05:28:29.741Z,8.44
2022-09-12T05:31:12.830Z,8.43
2022-09-12T05:33:41.373Z,8.48
2022-09-12T05:36:16.233Z,8.53
2022-09-12T05:38:43.515Z,8.60
2022-09-12T05:41:19.112Z,8.69
2022-09-12T05:43:53.141Z,8.85
2022-09-12T05:46:21.305Z,8.98
2022-09-12T05:48:52.504Z,9.10
2022-09-12T05:51:23.507Z,9.10
2022-09-12T05:53:52.962Z,9.16
2022-09-12T05:56:23.291Z,9.36
2022-09-12T05:59:16.549Z,9.47
2022-09-12T06:01:44.499Z,9.58
2022-09-12T06:04:12.079Z,9.67
2022-09-12T06:06:41.779Z,9.78
2022-09-12T06:09:09.351Z,9.91
2022-09-12T06:11:40.722Z,9.99
2022-09-12T06:14:08.826Z,10.09
2022-09-12T06:16:35.796Z,10.17
2022-09-12T06:19:06.697Z,10.31
2022-09-12T06:21:35.277Z,10.52
2022-09-12T06:24:02.637Z,10.67
2022-09-12T06:26:29.618Z,10.91
2022-09-12T06:28:59.269Z,11.02
2022-09-12T06:31:31.638Z,11.20
2022-09-12T06:34:01.743Z,11.39
2022-09-12T06:36:34.289Z,11.30
2022-09-12T06:39:03.893Z,11.36
2022-09-12T06:41:31.534Z,11.35
2022-09-12T06:43:59.166Z,11.41
2022-09-12T06:46:26.471Z,11.35
2022-09-12T06:48:53.625Z,11.35
2022-09-12T06:51:20.507Z,11.45
2022-09-12T06:53:48.990Z,11.40
2022-09-12T06:56:17.132Z,11.38
2022-09-12T06:58:43.872Z,11.60
2022-09-12T07:01:16.281Z,11.56
2022-09-12T07:03:47.929Z,11.90
2022-09-12T07:06:16.862Z,12.20
2022-09-12T07:08:43.699Z,12.53
2022-09-12T07:11:11.679Z,12.63
2022-09-12T07:13:40.109Z,12.75
2022-09-12T07:16:06.854Z,12.79
2022-09-12T07:18:34.723Z,12.98
2022-09-12T07:21:02.428Z,13.37
2022-09-12T07:23:30.155Z,13.53
2022-09-12T07:25:58.149Z,13.64
2022-09-12T07:28:25.720Z,13.71
2022-09-12T07:30:54.005Z,13.93
2022-09-12T07:33:21.921Z,14.16
2022-09-12T07:35:48.578Z,14.41
2022-09-12T07:38:16.196Z,14.72
2022-09-12T07:40:43.193Z,14.96
2022-09-12T07:43:10.859Z,14.98
2022-09-12T07:45:37.652Z,14.89
2022-09-12T07:48:04.477Z,14.76
2022-09-12T07:50:31.144Z,15.03
2022-09-12T07:52:57.686Z,15.20
2022-09-12T07:55:24.511Z,14.98
2022-09-12T07:57:52.030Z,15.34
2022-09-12T08:00:19.154Z,15.64
2022-09-12T08:02:45.761Z,15.90
2022-09-12T08:05:12.342Z,16.13
2022-09-12T08:07:38.939Z,16.27
2022-09-12T08:10:06.502Z,16.40
2022-09-12T08:12:34.593Z,16.53
2022-09-12T08:15:01.197Z,16.23
2022-09-12T08:17:28.867Z,16.37
2022-09-12T08:19:56.504Z,16.56
2022-09-12T08:22:24.071Z,16.66
2022-09-12T08:24:50.992Z,17.01
2022-09-12T08:27:17.541Z,17.13
2022-09-12T08:29:44.156Z,17.46
2022-09-12T08:32:10.729Z,17.65
2022-09-12T08:34:37.453Z,17.63
2022-09-12T08:37:04.099Z,17.65
2022-09-12T08:39:30.731Z,17.23
2022-09-12T08:42:03.417Z,17.59
2022-09-12T08:44:51.399Z,18.08
2022-09-12T08:47:22.373Z,18.27
2022-09-12T08:50:11.654Z,18.46
2022-09-12T08:52:51.971Z,18.69
2022-09-12T08:55:26.804Z,18.27
2022-09-12T08:57:54.101Z,18.26
2022-09-12T09:00:21.587Z,18.50
2022-09-12T09:03:10.011Z,19.05
2022-09-12T09:06:07.574Z,19.36
2022-09-12T09:08:52.070Z,19.56
2022-09-12T09:11:34.375Z,20.07
2022-09-12T09:14:42.348Z,20.07
2022-09-12T09:17:13.114Z,19.90
2022-09-12T09:19:50.830Z,20.07
2022-09-12T09:22:28.971Z,20.28
2022-09-12T09:25:02.387Z,20.93
2022-09-12T09:27:41.258Z,21.14
2022-09-12T09:30:15.366Z,20.92
2022-09-12T09:32:42.919Z,21.44
2022-09-12T09:35:32.147Z,21.56
2022-09-12T09:38:18.362Z,21.68
2022-09-12T09:40:47.981Z,21.90
2022-09-12T09:43:22.807Z,21.87
2022-09-12T09:45:51.843Z,21.87
2022-09-12T09:48:22.497Z,21.66
2022-09-12T09:50:50.396Z,21.97
2022-09-12T09:53:33.783Z,21.91
2022-09-12T09:56:05.532Z,21.76
2022-09-12T09:58:34.047Z,21.21
2022-09-12T10:01:03.896Z,21.28
2022-09-12T10:03:31.749Z,21.03
2022-09-12T10:06:07.196Z,21.10
2022-09-12T10:08:36.535Z,21.19
2022-09-12T10:11:18.748Z,21.16
2022-09-12T10:13:52.721Z,21.09
2022-09-12T10:16:25.428Z,21.36
2022-09-12T10:18:53.237Z,21.26
2022-09-12T10:21:41.287Z,21.65
2022-09-12T10:24:14.278Z,22.27
2022-09-12T10:26:41.943Z,22.36
2022-09-12T10:29:22.567Z,22.57
2022-09-12T10:31:58.785Z,22.98
2022-09-12T10:34:37.180Z,23.46
2022-09-12T10:37:09.498Z,23.86
2022-09-12T10:39:38.631Z,23.65
2022-09-12T10:42:05.793Z,24.11
2022-09-12T10:44:34.850Z,24.02
2022-09-12T10:47:21.075Z,23.73
2022-09-12T10:49:47.642Z,24.39
2022-09-12T10:52:23.218Z,24.57
2022-09-12T10:54:53.783Z,25.46
2022-09-12T10:57:33.278Z,25.76
2022-09-12T11:00:17.037Z,26.22
2022-09-12T11:03:14.669Z,26.15
2022-09-12T11:05:41.235Z,25.34
2022-09-12T11:08:13.995Z,25.50
2022-09-12T11:11:05.533Z,26.04
2022-09-12T11:13:50.366Z,26.76
2022-09-12T11:16:43.308Z,26.16
2022-09-12T11:19:22.526Z,27.04
2022-09-12T11:22:26.729Z,28.25
2022-09-12T11:25:13.616Z,28.81
2022-09-12T11:28:04.672Z,29.00
2022-09-12T11:30:46.248Z,28.76
2022-09-12T11:33:12.848Z,28.32
2022-09-12T11:35:54.967Z,28.97
2022-09-12T11:39:01.914Z,28.59
2022-09-12T11:41:41.368Z,28.59
2022-09-12T11:44:28.644Z,28.79
2022-09-12T11:46:55.377Z,30.08
2022-09-12T11:49:35.724Z,27.95
2022-09-12T11:52:15.826Z,28.13
2022-09-12T11:55:00.852Z,28.94
2022-09-12T11:57:52.930Z,27.79
2022-09-12T12:00:32.786Z,28.91
2022-09-12T12:03:08.821Z,29.08
2022-09-12T12:05:44.486Z,29.36
2022-09-12T12:08:12.264Z,29.08
2022-09-12T12:10:42.301Z,29.25
2022-09-12T12:13:22.438Z,29.74
2022-09-12T12:15:53.523Z,29.75
2022-09-12T12:18:24.824Z,29.73
2022-09-12T12:20:53.329Z,29.25
2022-09-12T12:23:28.625Z,27.50
2022-09-12T12:25:57.778Z,27.47
2022-09-12T12:28:42.414Z,27.58
2022-09-12T12:31:10.972Z,27.86
2022-09-12T12:33:37.537Z,28.27
2022-09-12T12:36:28.755Z,28.14
2022-09-12T12:38:55.533Z,28.30
2022-09-12T12:41:22.796Z,28.23
2022-09-12T12:43:54.695Z,27.29
2022-09-12T12:46:23.935Z,27.68
2022-09-12T12:48:53.584Z,27.82
2022-09-12T12:51:35.180Z,28.39
2022-09-12T12:54:07.785Z,29.23
2022-09-12T12:56:42.507Z,28.48
2022-09-12T12:59:19.751Z,28.13
2022-09-12T13:01:56.233Z,28.43
2022-09-12T13:04:26.391Z,29.49
2022-09-12T13:07:08.843Z,29.72
2022-09-12T13:09:52.598Z,30.32
2022-09-12T13:12:29.097Z,29.64
2022-09-12T13:14:58.309Z,29.81
2022-09-12T13:17:44.137Z,30.58
2022-09-12T13:20:29.609Z,32.07
2022-09-12T13:22:57.366Z,30.11
2022-09-12T13:25:35.326Z,29.48
2022-09-12T13:28:01.926Z,30.01
2022-09-12T13:30:32.756Z,30.06
2022-09-12T13:33:09.885Z,29.82
2022-09-12T13:36:09.888Z,29.94
2022-09-12T13:39:15.870Z,30.82
2022-09-12T13:42:03.714Z,29.37
2022-09-12T13:44:32.883Z,29.48
2022-09-12T13:47:01.547Z,32.10
2022-09-12T13:49:35.198Z,31.12
2022-09-12T13:52:06.182Z,30.81
2022-09-12T13:54:40.504Z,31.09
2022-09-12T13:57:07.116Z,31.28
2022-09-12T13:59:41.071Z,31.53
2022-09-12T14:02:23.035Z,30.41
2022-09-12T14:05:09.026Z,30.61
2022-09-12T14:08:04.664Z,31.45
2022-09-12T14:10:38.114Z,31.60
2022-09-12T14:13:12.760Z,32.14
2022-09-12T14:15:40.165Z,31.68
2022-09-12T14:18:08.626Z,30.81
2022-09-12T14:20:39.467Z,31.01
2022-09-12T14:23:27.544Z,31.94
2022-09-12T14:25:56.273Z,31.78
2022-09-12T14:28:23.918Z,32.13
2022-09-12T14:31:34.179Z,33.74
2022-09-12T14:34:16.192Z,31.04
2022-09-12T14:36:46.513Z,30.34
2022-09-12T14:39:39.967Z,31.32
2022-09-12T14:42:16.414Z,31.03
2022-09-12T14:45:14.445Z,31.02
2022-09-12T14:47:43.594Z,30.89
2022-09-12T14:50:18.583Z,31.92
2022-09-12T14:52:45.275Z,31.73
2022-09-12T14:55:29.557Z,32.33
2022-09-12T14:58:14.444Z,33.13
2022-09-12T15:00:56.889Z,32.40
2022-09-12T15:03:37.096Z,32.68
2022-09-12T15:06:04.842Z,31.11
2022-09-12T15:08:32.203Z,28.77
2022-09-12T15:11:00.213Z,28.00
2022-09-12T15:13:29.033Z,27.27
2022-09-12T15:15:57.612Z,25.85
2022-09-12T15:18:26.433Z,24.81
2022-09-12T15:21:05.448Z,24.42
2022-09-12T15:23:46.938Z,24.00
2022-09-12T15:26:16.480Z,23.61
2022-09-12T15:28:43.095Z,23.77
2022-09-12T15:31:22.478Z,23.92
2022-09-12T15:33:49.197Z,23.51
2022-09-12T15:36:18.931Z,23.06
2022-09-12T15:38:46.715Z,22.74
2022-09-12T15:41:28.326Z,22.53
2022-09-12T15:43:54.910Z,23.02
2022-09-12T15:46:21.799Z,23.29
2022-09-12T15:48:48.749Z,22.99
2022-09-12T15:51:17.689Z,22.96
2022-09-12T15:53:44.816Z,22.61
2022-09-12T15:56:11.991Z,22.53
2022-09-12T15:58:49.739Z,22.48
2022-09-12T16:01:22.921Z,22.13
2022-09-12T16:03:49.551Z,21.81
2022-09-12T16:06:16.129Z,21.69
2022-09-12T16:08:42.770Z,21.52
2022-09-12T16:11:21.120Z,21.26
2022-09-12T16:13:48.204Z,21.32
2022-09-12T16:16:14.848Z,21.29
2022-09-12T16:18:42.337Z,21.19
2022-09-12T16:21:14.059Z,21.14
2022-09-12T16:23:47.561Z,21.02
2022-09-12T16:26:15.095Z,20.81
2022-09-12T16:28:41.738Z,20.63
2022-09-12T16:31:11.669Z,20.17
2022-09-12T16:33:39.586Z,19.98
2022-09-12T16:36:10.269Z,19.84
2022-09-12T16:38:44.451Z,19.63
2022-09-12T16:41:12.029Z,19.48
2022-09-12T16:43:39.147Z,19.42
2022-09-12T16:46:15.896Z,19.29
2022-09-12T16:48:49.308Z,19.29
2022-09-12T16:51:20.502Z,19.15
2022-09-12T16:53:48.211Z,19.00
2022-09-12T16:56:15.587Z,18.78
2022-09-12T16:58:42.706Z,18.52
2022-09-12T17:01:14.870Z,18.37
2022-09-12T17:03:41.974Z,18.15
2022-09-12T17:06:09.727Z,17.97
2022-09-12T17:08:39.296Z,17.78
2022-09-12T17:11:12.074Z,17.64
2022-09-12T17:14:00.584Z,17.49
2022-09-12T17:16:27.317Z,17.44
2022-09-12T17:18:54.353Z,17.31
2022-09-12T17:21:21.570Z,17.09
2022-09-12T17:23:48.425Z,16.95
2022-09-12T17:26:15.578Z,16.83
2022-09-12T17:28:42.478Z,16.79
2022-09-12T17:31:11.831Z,16.62
2022-09-12T17:33:39.643Z,16.46
2022-09-12T17:36:11.977Z,16.30
2022-09-12T17:38:39.872Z,16.13
2022-09-12T17:41:25.546Z,15.93
2022-09-12T17:43:55.698Z,15.72
2022-09-12T17:46:24.862Z,15.60
2022-09-12T17:48:56.441Z,15.55
2022-09-12T17:51:25.841Z,15.49
2022-09-12T17:54:11.764Z,15.50
2022-09-12T17:56:39.066Z,15.38
2022-09-12T17:59:07.426Z,15.24
2022-09-12T18:01:53.237Z,15.18
2022-09-12T18:04:20.263Z,15.09
2022-09-12T18:06:48.852Z,15.04
2022-09-12T18:09:18.564Z,14.96
2022-09-12T18:11:46.100Z,14.90
2022-09-12T18:14:14.415Z,14.96
2022-09-12T18:16:41.947Z,14.93
2022-09-12T18:19:10.953Z,14.91
2022-09-12T18:21:37.816Z,14.73
2022-09-12T18:24:05.145Z,14.73
2022-09-12T18:26:32.535Z,14.69
2022-09-12T18:28:59.333Z,14.68
2022-09-12T18:31:29.132Z,14.59
2022-09-12T18:33:56.738Z,14.59
2022-09-12T18:36:23.539Z,14.61
2022-09-12T18:38:50.216Z,14.58
2022-09-12T18:41:19.796Z,14.59
2022-09-12T18:43:47.516Z,14.53
2022-09-12T18:46:17.430Z,14.43
2022-09-12T18:48:47.417Z,14.28
2022-09-12T18:51:14.894Z,14.15
2022-09-12T18:53:42.696Z,14.12
2022-09-12T18:56:13.787Z,14.09
2022-09-12T18:58:42.857Z,13.94
2022-09-12T19:01:19.430Z,13.83
2022-09-12T19:03:46.694Z,13.75
2022-09-12T19:06:19.135Z,13.76
2022-09-12T19:08:46.308Z,13.69
2022-09-12T19:11:13.349Z,13.71
2022-09-12T19:13:42.060Z,13.66
2022-09-12T19:16:12.194Z,13.63
2022-09-12T19:18:40.189Z,13.60
2022-09-12T19:21:12.277Z,13.64
2022-09-12T19:23:38.988Z,13.55
2022-09-12T19:26:07.618Z,13.54
2022-09-12T19:28:34.943Z,13.49
2022-09-12T19:31:05.591Z,13.47
2022-09-12T19:33:32.266Z,13.44
2022-09-12T19:36:04.297Z,13.44
2022-09-12T19:38:31.591Z,13.38
2022-09-12T19:41:00.193Z,13.26
2022-09-12T19:43:27.156Z,13.28
2022-09-12T19:45:54.712Z,13.13
2022-09-12T19:48:21.837Z,12.95
2022-09-12T19:50:49.369Z,12.86
2022-09-12T19:53:16.942Z,12.79
2022-09-12T19:55:45.178Z,12.75
2022-09-12T19:58:13.308Z,12.66
2022-09-12T20:00:39.917Z,12.68
2022-09-12T20:03:06.585Z,12.63
2022-09-12T20:05:33.852Z,12.64
2022-09-12T20:08:01.442Z,12.44
2022-09-12T20:10:28.155Z,12.39
2022-09-12T20:12:54.792Z,12.36
2022-09-12T20:15:21.445Z,12.38
2022-09-12T20:17:48.040Z,12.23
2022-09-12T20:20:14.618Z,12.20
2022-09-12T20:22:41.178Z,12.20
2022-09-12T20:25:08.317Z,12.28
2022-09-12T20:27:34.967Z,12.16
2022-09-12T20:30:01.625Z,12.11
2022-09-12T20:32:28.895Z,12.08
2022-09-12T20:34:56.378Z,12.02
2022-09-12T20:37:23.609Z,12.05
2022-09-12T20:39:51.054Z,12.07
2022-09-12T20:42:18.625Z,11.98
2022-09-12T20:44:45.219Z,11.93
2022-09-12T20:47:11.844Z,11.78
2022-09-12T20:49:38.436Z,11.75
2022-09-12T20:52:05.059Z,11.72
2022-09-12T20:54:31.647Z,11.65
2022-09-12T20:56:58.241Z,11.58
2022-09-12T20:59:24.843Z,11.44
2022-09-12T21:01:51.494Z,11.43
2022-09-12T21:04:18.542Z,11.32
2022-09-12T21:06:45.300Z,11.12
2022-09-12T21:09:11.932Z,11.08
2022-09-12T21:11:38.500Z,11.05
2022-09-12T21:14:05.200Z,11.00
2022-09-12T21:16:38.243Z,11.02
2022-09-12T21:19:06.563Z,10.95
2022-09-12T21:21:33.198Z,10.86
2022-09-12T21:24:02.636Z,10.77
2022-09-12T21:26:29.618Z,10.86
2022-09-12T21:28:56.627Z,10.91
2022-09-12T21:31:23.887Z,10.83
2022-09-12T21:33:51.052Z,10.72
2022-09-12T21:36:17.631Z,10.74
2022-09-12T21:38:44.242Z,10.71
2022-09-12T21:41:16.079Z,10.49
2022-09-12T21:43:43.489Z,10.44
2022-09-12T21:46:10.326Z,10.49
2022-09-12T21:48:37.564Z,10.54
2022-09-12T21:51:04.644Z,10.55
2022-09-12T21:53:34.174Z,10.44
2022-09-12T21:56:03.404Z,10.28
2022-09-12T21:58:30.106Z,10.28
2022-09-12T22:00:57.276Z,10.29
2022-09-12T22:03:24.273Z,10.28
2022-09-12T22:05:56.103Z,10.24
2022-09-12T22:08:24.023Z,10.24
2022-09-12T22:10:50.634Z,10.26
2022-09-12T22:13:17.198Z,10.33
2022-09-12T22:15:44.720Z,10.40
2022-09-12T22:18:11.563Z,10.36
2022-09-12T22:20:38.157Z,10.30
2022-09-12T22:23:25.018Z,10.20
2022-09-12T22:25:55.637Z,10.02
2022-09-12T22:28:22.604Z,10.02
2022-09-12T22:30:49.197Z,10.03
2022-09-12T22:33:15.808Z,10.09
2022-09-12T22:35:42.497Z,10.07
2022-09-12T22:38:09.169Z,10.03
2022-09-12T22:40:35.774Z,9.94
2022-09-12T22:43:02.344Z,9.89
2022-09-12T22:45:28.963Z,9.81
2022-09-12T22:47:59.191Z,9.78
2022-09-12T22:50:27.611Z,9.76
2022-09-12T22:52:54.162Z,9.65
2022-09-12T22:55:20.747Z,9.61
2022-09-12T22:57:47.324Z,9.51
2022-09-12T23:00:14.899Z,9.48
2022-09-12T23:02:41.509Z,9.47
2022-09-12T23:05:08.399Z,9.42
2022-09-12T23:07:35.636Z,9.39
2022-09-12T23:10:02.205Z,9.31
2022-09-12T23:12:28.919Z,9.29
2022-09-12T23:14:55.663Z,9.24
2022-09-12T23:17:22.234Z,9.23
2022-09-12T23:19:48.842Z,9.17
2022-09-12T23:22:15.427Z,9.16
2022-09-12T23:24:42.003Z,9.14
2022-09-12T23:27:08.920Z,9.13
2022-09-12T23:29:35.624Z,9.13
2022-09-12T23:32:03.833Z,9.19
2022-09-12T23:34:30.943Z,9.21
2022-09-12T23:36:57.550Z,9.19
2022-09-12T23:39:24.187Z,9.19
2022-09-12T23:41:51.443Z,9.21
2022-09-12T23:44:17.995Z,9.18
2022-09-12T23:46:44.570Z,9.09
2022-09-12T23:49:11.103Z,9.10
2022-09-12T23:51:37.703Z,9.18
2022-09-12T23:54:04.386Z,9.14
2022-09-12T23:56:30.959Z,9.07
2022-09-12T23:58:57.522Z,8.99
